createdAt,value
2018-05-25T00:00:30.565Z,96516
2018-05-25T00:03:00.237Z,96508
2018-05-25T00:05:29.279Z,96506
2018-05-25T00:07:58.156Z,96507
2018-05-25T00:10:27.081Z,96513
2018-05-25T00:12:56.731Z,96507
2018-05-25T00:15:25.651Z,96501
2018-05-25T00:17:55.294Z,96498
2018-05-25T00:20:24.183Z,96490
2018-05-25T00:22:56.899Z,96494
2018-05-25T00:25:26.047Z,96493
2018-05-25T00:27:54.922Z,96493
2018-05-25T00:30:23.836Z,96490
2018-05-25T00:32:52.715Z,96488
2018-05-25T00:35:21.598Z,96492
2018-05-25T00:37:50.510Z,96478
2018-05-25T00:40:19.383Z,96478
2018-05-25T00:42:48.256Z,96475
2018-05-25T00:45:17.157Z,96471
2018-05-25T00:47:46.031Z,96466
2018-05-25T00:50:15.694Z,96472
2018-05-25T00:52:44.591Z,96453
2018-05-25T00:55:31.379Z,96457
2018-05-25T00:58:00.295Z,96454
2018-05-25T01:00:29.182Z,96450
2018-05-25T01:03:01.785Z,96458
2018-05-25T01:05:30.663Z,96452
2018-05-25T01:07:59.544Z,96457
2018-05-25T01:10:28.481Z,96464
2018-05-25T01:12:57.356Z,96444
2018-05-25T01:15:26.236Z,96449
2018-05-25T01:17:55.163Z,96449
2018-05-25T01:20:24.671Z,96443
2018-05-25T01:22:53.540Z,96441
2018-05-25T01:25:22.494Z,96445
2018-05-25T01:27:51.381Z,96446
2018-05-25T01:30:21.040Z,96444
2018-05-25T01:32:49.958Z,96447
2018-05-25T01:35:18.832Z,96449
2018-05-25T01:37:47.713Z,96444
2018-05-25T01:40:16.625Z,96443
2018-05-25T01:42:45.500Z,96438
2018-05-25T01:45:14.379Z,96435
2018-05-25T01:47:43.295Z,96441
2018-05-25T01:50:12.927Z,96440
2018-05-25T01:52:41.811Z,96438
2018-05-25T01:55:10.742Z,96449
2018-05-25T01:57:40.389Z,96439
2018-05-25T02:00:09.263Z,96442
2018-05-25T02:02:38.160Z,96437
2018-05-25T02:05:07.039Z,96442
2018-05-25T02:07:35.958Z,96436
2018-05-25T02:10:04.844Z,96439
2018-05-25T02:12:33.715Z,96446
2018-05-25T02:15:02.641Z,96442
2018-05-25T02:17:31.521Z,96448
2018-05-25T02:20:01.162Z,96440
2018-05-25T02:22:30.060Z,96446
2018-05-25T02:24:58.940Z,96434
2018-05-25T02:27:27.845Z,96445
2018-05-25T02:29:57.489Z,96444
2018-05-25T02:32:26.419Z,96444
2018-05-25T02:34:56.051Z,96443
2018-05-25T02:37:24.923Z,96446
2018-05-25T02:39:53.820Z,96436
2018-05-25T02:42:22.736Z,96431
2018-05-25T02:44:52.389Z,96427
2018-05-25T02:47:21.283Z,96433
2018-05-25T02:49:50.185Z,96435
2018-05-25T02:52:19.064Z,96440
2018-05-25T02:54:47.963Z,96437
2018-05-25T02:57:16.926Z,96438
2018-05-25T02:59:45.762Z,96434
2018-05-25T03:02:14.669Z,96430
2018-05-25T03:04:43.544Z,96433
2018-05-25T03:07:12.415Z,96436
2018-05-25T03:09:41.311Z,96439
2018-05-25T03:12:10.215Z,96445
2018-05-25T03:14:39.091Z,96440
2018-05-25T03:17:07.982Z,96440
2018-05-25T03:19:37.691Z,96441
2018-05-25T03:22:07.339Z,96442
2018-05-25T03:24:36.230Z,96456
2018-05-25T03:27:05.140Z,96452
2018-05-25T03:29:34.783Z,96448
2018-05-25T03:32:03.679Z,96456
2018-05-25T03:34:32.559Z,96451
2018-05-25T03:37:01.480Z,96452
2018-05-25T03:39:30.351Z,96463
2018-05-25T03:41:59.247Z,96463
2018-05-25T03:44:28.167Z,96462
2018-05-25T03:46:57.855Z,96460
2018-05-25T03:49:26.734Z,96459
2018-05-25T03:51:56.395Z,96456
2018-05-25T03:54:25.300Z,96455
2018-05-25T03:56:54.956Z,96455
2018-05-25T03:59:41.912Z,96445
2018-05-25T04:02:10.823Z,96459
2018-05-25T04:04:41.380Z,96452
2018-05-25T04:07:11.020Z,96454
2018-05-25T04:09:39.901Z,96449
2018-05-25T04:12:08.811Z,96450
2018-05-25T04:14:37.692Z,96448
2018-05-25T04:17:07.334Z,96441
2018-05-25T04:19:36.260Z,96445
2018-05-25T04:22:05.145Z,96448
2018-05-25T04:24:34.796Z,96446
2018-05-25T04:27:03.721Z,96445
2018-05-25T04:29:33.411Z,96441
2018-05-25T04:32:03.048Z,96450
2018-05-25T04:34:31.927Z,96449
2018-05-25T04:37:00.845Z,96451
2018-05-25T04:39:30.509Z,96446
2018-05-25T04:41:59.379Z,96445
2018-05-25T04:44:28.284Z,96444
2018-05-25T04:46:57.204Z,96443
2018-05-25T04:49:26.079Z,96447
2018-05-25T04:51:54.972Z,96446
2018-05-25T04:54:23.866Z,96458
2018-05-25T04:56:52.788Z,96451
2018-05-25T04:59:21.665Z,96452
2018-05-25T05:01:51.301Z,96455
2018-05-25T05:04:20.198Z,96453
2018-05-25T05:06:49.095Z,96449
2018-05-25T05:09:18.875Z,96454
2018-05-25T05:11:48.518Z,96458
2018-05-25T05:14:17.394Z,96449
2018-05-25T05:16:46.295Z,96460
2018-05-25T05:19:15.198Z,96456
2018-05-25T05:21:44.836Z,96459
2018-05-25T05:24:13.756Z,96446
2018-05-25T05:26:43.399Z,96453
2018-05-25T05:29:12.272Z,96451
2018-05-25T05:31:41.186Z,96453
2018-05-25T05:34:10.076Z,96448
2018-05-25T05:36:39.721Z,96454
2018-05-25T05:39:08.631Z,96452
2018-05-25T05:41:37.535Z,96464
2018-05-25T05:44:06.414Z,96470
2018-05-25T05:46:35.307Z,96471
2018-05-25T05:49:04.204Z,96466
2018-05-25T05:51:33.097Z,96467
2018-05-25T05:54:02.002Z,96475
2018-05-25T05:56:31.639Z,96478
2018-05-25T05:59:00.539Z,96472
2018-05-25T06:01:29.456Z,96473
2018-05-25T06:03:58.328Z,96474
2018-05-25T06:06:27.963Z,96470
2018-05-25T06:08:56.878Z,96487
2018-05-25T06:11:26.531Z,96476
2018-05-25T06:13:55.406Z,96476
2018-05-25T06:16:24.315Z,96490
2018-05-25T06:18:53.184Z,96495
2018-05-25T06:21:22.057Z,96496
2018-05-25T06:23:50.955Z,96498
2018-05-25T06:26:20.593Z,96495
2018-05-25T06:28:49.474Z,96494
2018-05-25T06:31:18.363Z,96492
2018-05-25T06:33:47.273Z,96499
2018-05-25T06:36:16.915Z,96514
2018-05-25T06:38:46.578Z,96507
2018-05-25T06:41:15.452Z,96513
2018-05-25T06:43:44.339Z,96510
2018-05-25T06:46:13.243Z,96502
2018-05-25T06:48:42.113Z,96512
2018-05-25T06:51:11.000Z,96510
2018-05-25T06:53:39.899Z,96512
2018-05-25T06:56:09.549Z,96517
2018-05-25T06:58:38.485Z,96522
2018-05-25T07:01:07.367Z,96519
2018-05-25T07:03:36.271Z,96521
2018-05-25T07:06:05.168Z,96520
2018-05-25T07:08:34.039Z,96521
2018-05-25T07:11:02.920Z,96529
2018-05-25T07:13:31.822Z,96531
2018-05-25T07:16:01.456Z,96528
2018-05-25T07:18:30.328Z,96538
2018-05-25T07:20:59.221Z,96534
2018-05-25T07:23:28.111Z,96537
2018-05-25T07:25:56.992Z,96541
2018-05-25T07:28:25.931Z,96531
2018-05-25T07:30:54.841Z,96529
2018-05-25T07:33:23.806Z,96529
2018-05-25T07:35:52.675Z,96533
2018-05-25T07:38:23.124Z,96526
2018-05-25T07:40:52.760Z,96541
2018-05-25T07:43:21.631Z,96543
2018-05-25T07:45:50.535Z,96545
2018-05-25T07:48:20.207Z,96549
2018-05-25T07:50:49.104Z,96551
2018-05-25T07:53:17.992Z,96545
2018-05-25T07:55:46.880Z,96535
2018-05-25T07:58:16.543Z,96547
2018-05-25T08:00:45.466Z,96540
2018-05-25T08:03:14.346Z,96548
2018-05-25T08:05:43.242Z,96554
2018-05-25T08:08:12.207Z,96552
2018-05-25T08:10:41.093Z,96553
2018-05-25T08:13:09.974Z,96544
2018-05-25T08:15:38.901Z,96556
2018-05-25T08:18:08.546Z,96548
2018-05-25T08:20:37.440Z,96550
2018-05-25T08:23:06.344Z,96550
2018-05-25T08:25:35.987Z,96545
2018-05-25T08:28:05.139Z,96542
2018-05-25T08:30:34.036Z,96543
2018-05-25T08:33:02.972Z,96531
2018-05-25T08:35:32.612Z,96540
2018-05-25T08:38:01.486Z,96541
2018-05-25T08:40:30.415Z,96532
2018-05-25T08:42:59.288Z,96550
2018-05-25T08:45:28.952Z,96543
2018-05-25T08:47:57.859Z,96527
2018-05-25T08:50:27.512Z,96529
2018-05-25T08:52:56.435Z,96542
2018-05-25T08:55:25.315Z,96540
2018-05-25T08:57:54.187Z,96540
2018-05-25T09:00:23.099Z,96544
2018-05-25T09:02:51.992Z,96544
2018-05-25T09:05:20.861Z,96545
2018-05-25T09:07:49.759Z,96553
2018-05-25T09:10:19.399Z,96549
2018-05-25T09:12:48.308Z,96537
2018-05-25T09:15:17.195Z,96548
2018-05-25T09:17:46.069Z,96541
2018-05-25T09:20:14.989Z,96546
2018-05-25T09:22:43.912Z,96542
2018-05-25T09:25:12.793Z,96555
2018-05-25T09:27:41.669Z,96549
2018-05-25T09:30:10.563Z,96546
2018-05-25T09:32:40.195Z,96549
2018-05-25T09:35:09.088Z,96556
2018-05-25T09:37:37.983Z,96567
2018-05-25T09:40:06.875Z,96568
2018-05-25T09:42:36.556Z,96564
2018-05-25T09:45:05.455Z,96559
2018-05-25T09:47:34.372Z,96567
2018-05-25T09:50:03.263Z,96557
2018-05-25T09:52:32.139Z,96553
2018-05-25T09:55:01.043Z,96549
2018-05-25T09:57:30.683Z,96552
2018-05-25T09:59:59.607Z,96551
2018-05-25T10:02:29.248Z,96550
2018-05-25T10:04:58.123Z,96546
2018-05-25T10:07:27.051Z,96538
2018-05-25T10:09:56.687Z,96540
2018-05-25T10:12:25.579Z,96540
2018-05-25T10:14:54.475Z,96538
2018-05-25T10:17:23.359Z,96533
2018-05-25T10:19:52.263Z,96535
2018-05-25T10:22:21.139Z,96533
2018-05-25T10:24:50.035Z,96528
2018-05-25T10:27:18.923Z,96530
2018-05-25T10:29:47.803Z,96529
2018-05-25T10:32:16.694Z,96534
2018-05-25T10:34:45.601Z,96530
2018-05-25T10:37:14.529Z,96536
2018-05-25T10:39:43.424Z,96517
2018-05-25T10:42:12.302Z,96514
2018-05-25T10:44:41.202Z,96516
2018-05-25T10:47:10.859Z,96511
2018-05-25T10:49:39.763Z,96512
2018-05-25T10:52:09.407Z,96504
2018-05-25T10:54:38.320Z,96509
2018-05-25T10:57:08.015Z,96541
2018-05-25T10:59:37.671Z,96533
2018-05-25T11:02:06.568Z,96540
2018-05-25T11:04:35.463Z,96506
2018-05-25T11:07:04.359Z,96523
2018-05-25T11:09:33.255Z,96534
2018-05-25T11:12:02.143Z,96526
2018-05-25T11:14:31.035Z,96527
2018-05-25T11:16:59.917Z,96530
2018-05-25T11:19:28.811Z,96530
2018-05-25T11:21:58.510Z,96534
2018-05-25T11:24:28.147Z,96539
2018-05-25T11:26:57.052Z,96541
2018-05-25T11:29:25.935Z,96531
2018-05-25T11:31:54.837Z,96523
2018-05-25T11:34:24.492Z,96521
2018-05-25T11:36:53.367Z,96528
2018-05-25T11:39:22.259Z,96528
2018-05-25T11:41:51.133Z,96534
2018-05-25T11:44:20.027Z,96532
2018-05-25T11:46:49.707Z,96543
2018-05-25T11:49:19.365Z,96556
2018-05-25T11:51:48.284Z,96566
2018-05-25T11:54:17.932Z,96567
2018-05-25T11:56:46.800Z,96564
2018-05-25T11:59:15.723Z,96564
2018-05-25T12:01:46.091Z,96566
2018-05-25T12:04:14.988Z,96575
2018-05-25T12:06:43.868Z,96578
2018-05-25T12:09:13.526Z,96591
2018-05-25T12:11:47.958Z,96588
2018-05-25T12:14:16.881Z,96601
2018-05-25T12:16:45.751Z,96598
2018-05-25T12:19:14.644Z,96609
2018-05-25T12:21:43.527Z,96607
2018-05-25T12:24:12.404Z,96617
2018-05-25T12:26:41.302Z,96607
2018-05-25T12:29:10.175Z,96611
2018-05-25T12:31:39.089Z,96606
2018-05-25T12:34:08.016Z,96617
2018-05-25T12:36:36.875Z,96617
2018-05-25T12:39:05.804Z,96633
2018-05-25T12:41:35.467Z,96629
2018-05-25T12:44:04.377Z,96638
2018-05-25T12:46:33.284Z,96646
2018-05-25T12:49:02.180Z,96651
2018-05-25T12:51:31.144Z,96653
2018-05-25T12:54:00.020Z,96646
2018-05-25T12:56:28.903Z,96640
2018-05-25T12:59:02.812Z,96639
2018-05-25T13:01:31.683Z,96646
2018-05-25T13:04:00.556Z,96640
2018-05-25T13:06:29.467Z,96647
2018-05-25T13:08:59.107Z,96659
2018-05-25T13:11:28.881Z,96650
2018-05-25T13:13:57.770Z,96652
2018-05-25T13:16:26.646Z,96655
2018-05-25T13:18:55.558Z,96649
2018-05-25T13:21:24.428Z,96653
2018-05-25T13:23:53.299Z,96650
2018-05-25T13:26:22.225Z,96656
2018-05-25T13:28:51.432Z,96655
2018-05-25T13:31:20.299Z,96651
2018-05-25T13:33:49.203Z,96662
2018-05-25T13:36:18.080Z,96656
2018-05-25T13:38:46.979Z,96658
2018-05-25T13:41:15.868Z,96655
2018-05-25T13:43:45.551Z,96655
2018-05-25T13:46:15.198Z,96663
2018-05-25T13:48:44.104Z,96671
2018-05-25T13:51:12.982Z,96668
2018-05-25T13:53:42.643Z,96663
2018-05-25T13:56:11.531Z,96660
2018-05-25T13:58:40.423Z,96664
2018-05-25T14:01:10.075Z,96667
2018-05-25T14:03:38.973Z,96663
2018-05-25T14:06:07.871Z,96655
2018-05-25T14:08:37.557Z,96662
2018-05-25T14:11:07.264Z,96667
2018-05-25T14:13:36.915Z,96665
2018-05-25T14:16:05.804Z,96667
2018-05-25T14:18:34.770Z,96659
2018-05-25T14:21:03.667Z,96662
2018-05-25T14:23:32.694Z,96658
2018-05-25T14:26:01.591Z,96651
2018-05-25T14:28:30.481Z,96653
2018-05-25T14:30:59.411Z,96652
2018-05-25T14:33:28.306Z,96651
2018-05-25T14:35:57.183Z,96644
2018-05-25T14:38:26.083Z,96664
2018-05-25T14:40:54.975Z,96653
2018-05-25T14:43:23.901Z,96648
2018-05-25T14:45:52.788Z,96651
2018-05-25T14:48:21.674Z,96655
2018-05-25T14:50:50.583Z,96647
2018-05-25T14:53:20.234Z,96637
2018-05-25T14:55:49.897Z,96638
2018-05-25T14:58:18.799Z,96640
2018-05-25T15:00:47.691Z,96631
2018-05-25T15:03:16.587Z,96637
2018-05-25T15:05:46.261Z,96622
2018-05-25T15:08:15.169Z,96621
2018-05-25T15:10:44.099Z,96617
2018-05-25T15:13:12.987Z,96626
2018-05-25T15:15:41.868Z,96618
2018-05-25T15:18:10.760Z,96620
2018-05-25T15:20:40.416Z,96609
2018-05-25T15:23:09.316Z,96602
2018-05-25T15:25:38.228Z,96600
2018-05-25T15:28:07.141Z,96590
2018-05-25T15:30:36.007Z,96586
2018-05-25T15:33:04.891Z,96580
2018-05-25T15:35:33.808Z,96577
2018-05-25T15:38:03.478Z,96573
2018-05-25T15:40:32.378Z,96571
2018-05-25T15:43:02.077Z,96578
2018-05-25T15:45:31.714Z,96593
2018-05-25T15:48:00.603Z,96597
2018-05-25T15:50:29.500Z,96604
2018-05-25T15:52:58.400Z,96602
2018-05-25T15:55:27.302Z,96608
2018-05-25T15:57:56.169Z,96601
2018-05-25T16:00:25.040Z,96603
2018-05-25T16:02:53.950Z,96607
2018-05-25T16:05:22.847Z,96610
2018-05-25T16:07:51.723Z,96613
2018-05-25T16:10:20.617Z,96603
2018-05-25T16:12:50.281Z,96591
2018-05-25T16:15:19.156Z,96581
2018-05-25T16:17:48.057Z,96582
2018-05-25T16:20:17.709Z,96590
2018-05-25T16:22:46.586Z,96593
2018-05-25T16:25:15.480Z,96598
2018-05-25T16:27:44.357Z,96605
2018-05-25T16:30:13.380Z,96603
2018-05-25T16:32:42.399Z,96615
2018-05-25T16:35:11.308Z,96613
2018-05-25T16:37:40.939Z,96612
2018-05-25T16:40:09.891Z,96613
2018-05-25T16:42:39.508Z,96606
2018-05-25T16:45:08.383Z,96604
2018-05-25T16:47:37.288Z,96604
2018-05-25T16:50:06.217Z,96607
2018-05-25T16:52:35.822Z,96604
2018-05-25T16:55:04.725Z,96610
2018-05-25T16:57:33.595Z,96610
2018-05-25T17:00:02.465Z,96610
2018-05-25T17:02:31.363Z,96610
2018-05-25T17:05:01.051Z,96617
2018-05-25T17:07:30.703Z,96613
2018-05-25T17:09:59.571Z,96613
2018-05-25T17:12:28.490Z,96612
2018-05-25T17:14:57.391Z,96618
2018-05-25T17:17:27.069Z,96613
2018-05-25T17:19:55.935Z,96622
2018-05-25T17:22:24.819Z,96631
2018-05-25T17:24:53.732Z,96646
2018-05-25T17:27:22.610Z,96650
2018-05-25T17:29:51.493Z,96655
2018-05-25T17:32:21.176Z,96658
2018-05-25T17:34:50.061Z,96663
2018-05-25T17:37:18.928Z,96666
2018-05-25T17:39:47.827Z,96667
2018-05-25T17:42:16.695Z,96674
2018-05-25T17:44:45.571Z,96690
2018-05-25T17:47:14.467Z,96690
2018-05-25T17:49:43.368Z,96690
2018-05-25T17:52:13.042Z,96704
2018-05-25T17:54:42.695Z,96698
2018-05-25T17:57:11.602Z,96698
2018-05-25T17:59:40.491Z,96701
2018-05-25T18:02:10.135Z,96702
2018-05-25T18:04:39.039Z,96703
2018-05-25T18:07:08.086Z,96707
2018-05-25T18:09:37.036Z,96713
2018-05-25T18:12:05.959Z,96710
2018-05-25T18:14:34.848Z,96715
2018-05-25T18:17:03.740Z,96720
2018-05-25T18:19:33.427Z,96718
2018-05-25T18:22:02.312Z,96715
2018-05-25T18:24:31.976Z,96717
2018-05-25T18:27:00.876Z,96710
2018-05-25T18:29:30.516Z,96712
2018-05-25T18:31:59.394Z,96709
2018-05-25T18:34:28.295Z,96714
2018-05-25T18:36:57.199Z,96718
2018-05-25T18:39:26.893Z,96719
2018-05-25T18:41:56.546Z,96722
2018-05-25T18:44:25.451Z,96717
2018-05-25T18:46:54.341Z,96718
2018-05-25T18:49:24.008Z,96705
2018-05-25T18:51:52.960Z,96710
2018-05-25T18:54:33.758Z,96711
2018-05-25T18:57:02.654Z,96716
2018-05-25T18:59:31.554Z,96723
2018-05-25T19:02:00.521Z,96730
2018-05-25T19:04:29.432Z,96740
2018-05-25T19:06:58.313Z,96751
2018-05-25T19:09:27.241Z,96763
2018-05-25T19:11:56.169Z,96763
2018-05-25T19:14:25.064Z,96772
2018-05-25T19:16:54.747Z,96762
2018-05-25T19:19:24.412Z,96770
2018-05-25T19:21:53.287Z,96769
2018-05-25T19:24:22.203Z,96773
2018-05-25T19:26:51.101Z,96786
2018-05-25T19:29:20.007Z,96782
2018-05-25T19:31:48.887Z,96780
2018-05-25T19:34:17.828Z,96782
2018-05-25T19:36:46.704Z,96781
2018-05-25T19:39:15.608Z,96791
2018-05-25T19:41:44.510Z,96787
2018-05-25T19:44:13.388Z,96786
2018-05-25T19:46:42.332Z,96784
2018-05-25T19:49:11.211Z,96787
2018-05-25T19:51:40.159Z,96789
2018-05-25T19:54:09.041Z,96798
2018-05-25T19:56:37.920Z,96800
2018-05-25T19:59:06.845Z,96796
2018-05-25T20:01:36.491Z,96791
2018-05-25T20:04:05.376Z,96797
2018-05-25T20:06:34.301Z,96801
2018-05-25T20:09:04.041Z,96797
2018-05-25T20:11:32.940Z,96795
2018-05-25T20:14:01.828Z,96797
2018-05-25T20:16:31.515Z,96794
2018-05-25T20:19:01.163Z,96804
2018-05-25T20:21:30.052Z,96797
2018-05-25T20:23:58.947Z,96805
2018-05-25T20:26:27.832Z,96797
2018-05-25T20:28:56.774Z,96794
2018-05-25T20:31:25.652Z,96799
2018-05-25T20:33:54.536Z,96798
2018-05-25T20:36:23.456Z,96797
2018-05-25T20:38:53.096Z,96795
2018-05-25T20:41:21.986Z,96791
2018-05-25T20:43:50.899Z,96785
2018-05-25T20:46:20.567Z,96790
2018-05-25T20:48:49.469Z,96780
2018-05-25T20:51:19.136Z,96773
2018-05-25T20:53:48.044Z,96775
2018-05-25T20:56:16.944Z,96778
2018-05-25T20:58:45.843Z,96780
2018-05-25T21:01:14.757Z,96783
2018-05-25T21:03:43.655Z,96785
2018-05-25T21:06:12.588Z,96779
2018-05-25T21:08:41.477Z,96777
2018-05-25T21:11:11.116Z,96770
2018-05-25T21:13:40.063Z,96775
2018-05-25T21:16:08.940Z,96758
2018-05-25T21:18:37.832Z,96769
2018-05-25T21:21:06.707Z,96761
2018-05-25T21:23:35.603Z,96769
2018-05-25T21:26:04.503Z,96760
2018-05-25T21:28:33.407Z,96758
2018-05-25T21:31:02.319Z,96759
2018-05-25T21:33:31.209Z,96775
2018-05-25T21:36:00.096Z,96773
2018-05-25T21:38:29.000Z,96781
2018-05-25T21:40:58.639Z,96788
2018-05-25T21:43:27.571Z,96790
2018-05-25T21:45:57.216Z,96783
2018-05-25T21:48:26.891Z,96783
2018-05-25T21:50:55.767Z,96783
2018-05-25T21:53:24.648Z,96782
2018-05-25T21:55:54.318Z,96775
2018-05-25T21:58:23.195Z,96784
2018-05-25T22:00:52.087Z,96781
2018-05-25T22:03:20.983Z,96785
2018-05-25T22:05:49.882Z,96781
2018-05-25T22:08:19.544Z,96771
2018-05-25T22:10:48.423Z,96777
2018-05-25T22:13:17.340Z,96781
2018-05-25T22:15:47.008Z,96782
2018-05-25T22:18:15.902Z,96788
2018-05-25T22:20:45.587Z,96785
2018-05-25T22:23:15.231Z,96783
2018-05-25T22:25:44.727Z,96790
2018-05-25T22:28:13.631Z,96798
2018-05-25T22:30:42.536Z,96792
2018-05-25T22:33:12.215Z,96796
2018-05-25T22:35:41.903Z,96800
2018-05-25T22:38:11.554Z,96800
2018-05-25T22:40:40.441Z,96792
2018-05-25T22:43:27.256Z,96796
2018-05-25T22:46:14.023Z,96799
2018-05-25T22:49:00.755Z,96800
2018-05-25T22:51:48.333Z,96795
2018-05-25T22:54:42.922Z,96799
2018-05-25T22:57:11.795Z,96793
2018-05-25T22:59:40.693Z,96801
2018-05-25T23:02:10.337Z,96805
2018-05-25T23:04:39.232Z,96801
2018-05-25T23:07:08.151Z,96796
2018-05-25T23:09:37.044Z,96794
2018-05-25T23:12:05.916Z,96798
2018-05-25T23:14:34.816Z,96803
2018-05-25T23:17:03.700Z,96802
2018-05-25T23:19:32.600Z,96806
2018-05-25T23:22:02.246Z,96810
2018-05-25T23:24:31.222Z,96813
2018-05-25T23:27:00.091Z,96821
2018-05-25T23:29:28.977Z,96817
2018-05-25T23:31:57.888Z,96822
2018-05-25T23:34:26.761Z,96815
2018-05-25T23:36:55.641Z,96822
2018-05-25T23:39:24.534Z,96811
2018-05-25T23:41:54.179Z,96806
2018-05-25T23:44:23.075Z,96810
2018-05-25T23:46:51.951Z,96806
2018-05-25T23:49:20.868Z,96806
2018-05-25T23:51:49.748Z,96805
2018-05-25T23:54:18.628Z,96810
2018-05-25T23:56:47.536Z,96815
2018-05-25T23:59:16.452Z,96808
